Time;durP1;ratioP1;P1;durP2;ratioP2;P2;SDS_P1;SDS_P2;PMS_P1;PMS_P2;Temp;Humidity;BMP_temperature;BMP_pressure;BME280_temperature;BME280_humidity;BME280_pressure;Samples;Min_cycle;Max_cycle;Signal;HPM_P1;HPM_P2
2021/08/29 00:01:55;;;;;;;10.85;4.90;;;;;;;11.90;100.00;98877.44;5005784;28;20067;-72
2021/08/29 00:04:20;;;;;;;6.60;4.95;;;;;;;12.12;100.00;98896.19;5009738;28;20396;-72
2021/08/29 00:06:46;;;;;;;6.72;4.47;;;;;;;12.17;100.00;98882.81;5010247;28;20033;-71
2021/08/29 00:09:11;;;;;;;7.60;4.63;;;;;;;12.23;100.00;98895.53;5007803;28;20030;-73
2021/08/29 00:11:36;;;;;;;10.20;5.32;;;;;;;12.24;99.78;98899.91;4998170;28;20025;-73
2021/08/29 00:14:02;;;;;;;10.45;5.45;;;;;;;12.17;100.00;98890.94;5001459;28;20042;-73
2021/08/29 00:16:27;;;;;;;9.55;5.22;;;;;;;12.19;99.88;98891.59;4994898;28;20026;-73
2021/08/29 00:18:53;;;;;;;7.90;4.97;;;;;;;12.15;99.60;98876.75;4993029;28;20056;-73
2021/08/29 00:21:18;;;;;;;8.77;5.40;;;;;;;12.28;99.72;98898.44;5004599;28;20514;-73
2021/08/29 00:23:43;;;;;;;7.45;4.88;;;;;;;12.39;99.80;98889.66;5002170;28;20018;-73
2021/08/29 00:26:08;;;;;;;8.65;5.13;;;;;;;12.36;99.30;98887.34;4997700;28;20496;-73
2021/08/29 00:28:34;;;;;;;7.97;5.35;;;;;;;12.19;99.19;98869.88;5011509;28;20033;-72
2021/08/29 00:30:59;;;;;;;9.90;5.78;;;;;;;12.22;99.84;98883.00;5008341;28;20041;-73
2021/08/29 00:33:24;;;;;;;8.38;5.05;;;;;;;12.27;99.71;98888.63;5000633;28;20022;-73
2021/08/29 00:35:50;;;;;;;8.73;5.55;;;;;;;12.28;99.73;98874.84;5014759;28;20105;-73
2021/08/29 00:38:15;;;;;;;9.35;5.78;;;;;;;12.28;99.65;98860.47;5013380;28;20117;-73
2021/08/29 00:40:40;;;;;;;10.20;5.85;;;;;;;12.41;99.24;98884.84;5015297;28;20480;-74
2021/08/29 00:43:05;;;;;;;10.85;6.10;;;;;;;12.24;99.14;98859.22;5014524;28;20080;-74
2021/08/29 00:45:31;;;;;;;9.57;5.95;;;;;;;12.28;100.00;98872.13;5015008;28;20097;-74
2021/08/29 00:47:58;;;;;;;10.27;5.30;;;;;;;12.15;100.00;98879.47;5014796;28;20029;-74
2021/08/29 00:50:23;;;;;;;10.27;6.05;;;;;;;12.13;100.00;98870.72;5013991;28;20033;-73
2021/08/29 00:52:49;;;;;;;10.68;6.18;;;;;;;12.16;100.00;98870.31;5014618;28;20460;-74
2021/08/29 00:55:14;;;;;;;11.25;6.07;;;;;;;12.22;100.00;98855.88;5012786;28;20093;-74
2021/08/29 00:57:40;;;;;;;12.88;6.47;;;;;;;12.24;100.00;98872.78;5014165;28;20045;-74
2021/08/29 01:00:07;;;;;;;10.40;6.28;;;;;;;12.15;100.00;98847.75;5014146;28;20476;-75
2021/08/29 01:02:34;;;;;;;9.55;6.18;;;;;;;12.05;100.00;98840.09;5014125;28;20026;-74
2021/08/29 01:05:04;;;;;;;11.85;5.85;;;;;;;12.10;100.00;98860.28;5014425;28;20036;-75
2021/08/29 01:07:51;;;;;;;11.27;6.15;;;;;;;12.07;100.00;98870.50;5014366;28;20030;-74
2021/08/29 01:10:22;;;;;;;12.35;6.22;;;;;;;11.95;100.00;98858.66;5014108;28;20029;-74
2021/08/29 01:12:50;;;;;;;11.52;6.47;;;;;;;11.88;100.00;98849.69;5013980;28;20472;-74
2021/08/29 01:15:21;;;;;;;11.23;6.80;;;;;;;11.85;100.00;98853.63;5013347;28;20030;-74
2021/08/29 01:17:48;;;;;;;11.65;6.65;;;;;;;11.75;100.00;98844.25;5013854;28;20036;-74
2021/08/29 01:20:21;;;;;;;12.82;7.32;;;;;;;11.96;100.00;98856.78;5014113;28;20049;-74
2021/08/29 01:22:48;;;;;;;15.25;7.32;;;;;;;11.81;100.00;98843.41;5013882;28;20032;-74
2021/08/29 01:25:21;;;;;;;10.13;6.65;;;;;;;11.92;100.00;98858.22;5013730;28;20033;-76
2021/08/29 01:27:50;;;;;;;12.32;6.97;;;;;;;11.83;100.00;98836.72;5013772;28;20036;-74
2021/08/29 01:30:16;;;;;;;14.57;7.10;;;;;;;11.82;100.00;98845.09;5013394;28;20033;-74
2021/08/29 01:32:43;;;;;;;9.10;6.10;;;;;;;11.80;100.00;98830.91;5013307;28;20022;-75
2021/08/29 01:35:10;;;;;;;9.77;6.28;;;;;;;11.91;100.00;98853.88;5013609;28;20053;-74
2021/08/29 01:37:37;;;;;;;13.07;7.13;;;;;;;11.80;100.00;98839.88;5013322;28;20054;-74
2021/08/29 01:40:03;;;;;;;11.73;6.22;;;;;;;11.75;100.00;98839.66;5012740;28;20022;-73
2021/08/29 01:42:29;;;;;;;12.88;7.35;;;;;;;11.89;100.00;98848.63;5013264;28;20038;-74
2021/08/29 01:44:55;;;;;;;9.80;6.55;;;;;;;11.94;100.00;98848.84;5013179;28;20537;-74
2021/08/29 01:47:20;;;;;;;12.30;7.50;;;;;;;11.90;100.00;98844.91;5011813;28;20100;-74
2021/08/29 01:49:46;;;;;;;13.63;7.20;;;;;;;11.80;100.00;98831.75;5015022;28;20037;-74
2021/08/29 01:52:15;;;;;;;13.35;7.20;;;;;;;11.85;100.00;98828.41;5014446;28;20664;-74
2021/08/29 01:54:40;;;;;;;12.13;7.85;;;;;;;11.83;100.00;98823.19;5013312;28;20045;-74
2021/08/29 01:57:14;;;;;;;11.88;6.70;;;;;;;11.84;100.00;98829.44;5013300;28;20068;-73
2021/08/29 01:59:44;;;;;;;14.27;7.88;;;;;;;11.79;100.00;98826.53;5012369;28;20554;-74
2021/08/29 02:02:13;;;;;;;15.07;7.18;;;;;;;11.94;100.00;98845.31;5013287;28;20491;-74
2021/08/29 02:04:40;;;;;;;11.02;7.22;;;;;;;11.89;100.00;98842.38;5013020;28;20025;-74
2021/08/29 02:07:11;;;;;;;12.50;7.60;;;;;;;11.88;100.00;98830.72;5013051;28;20046;-74
2021/08/29 02:09:39;;;;;;;12.15;7.75;;;;;;;11.86;100.00;98835.50;5012841;28;20080;-73
2021/08/29 02:12:07;;;;;;;14.48;7.18;;;;;;;11.74;100.00;98815.50;5012012;28;20030;-74
2021/08/29 02:14:38;;;;;;;15.25;7.97;;;;;;;11.62;100.00;98802.56;5012670;28;20029;-74
2021/08/29 02:17:04;;;;;;;14.50;8.10;;;;;;;11.78;100.00;98822.97;5012094;28;20049;-74
2021/08/29 02:19:34;;;;;;;16.75;7.97;;;;;;;11.73;100.00;98816.53;5013437;28;20057;-73
2021/08/29 02:21:59;;;;;;;12.80;7.60;;;;;;;11.80;100.00;98839.88;5013539;28;20424;-74
2021/08/29 02:24:28;;;;;;;16.60;7.93;;;;;;;11.78;100.00;98830.28;5012933;28;20064;-73
2021/08/29 02:26:54;;;;;;;12.53;7.87;;;;;;;11.64;100.00;98807.78;5010921;28;20029;-74
2021/08/29 02:29:20;;;;;;;15.70;8.45;;;;;;;11.77;100.00;98842.19;5011235;28;20384;-73
2021/08/29 02:31:48;;;;;;;17.13;8.55;;;;;;;11.71;100.00;98813.19;5011517;28;20037;-74
2021/08/29 02:34:13;;;;;;;15.68;8.77;;;;;;;11.77;100.00;98826.75;5011152;28;20025;-73
2021/08/29 02:36:40;;;;;;;17.52;8.93;;;;;;;11.73;100.00;98836.31;5011157;28;20507;-74
2021/08/29 02:39:06;;;;;;;15.00;8.55;;;;;;;11.68;100.00;98816.31;5010795;28;20026;-73
2021/08/29 02:41:33;;;;;;;21.90;9.10;;;;;;;11.65;100.00;98816.75;5010751;28;20383;-73
2021/08/29 02:44:00;;;;;;;18.20;9.18;;;;;;;11.65;100.00;98808.63;5011191;28;20026;-74
2021/08/29 02:46:25;;;;;;;16.15;9.40;;;;;;;11.73;100.00;98811.09;5011065;28;20026;-74
2021/08/29 02:48:51;;;;;;;18.38;9.73;;;;;;;11.68;100.00;98798.19;5009806;28;20781;-74
2021/08/29 02:51:17;;;;;;;15.93;8.80;;;;;;;11.75;100.00;98815.28;5009937;28;20387;-74
2021/08/29 02:53:43;;;;;;;14.95;8.25;;;;;;;11.88;100.00;98833.44;5008913;28;20040;-74
2021/08/29 02:56:09;;;;;;;17.95;8.85;;;;;;;11.90;100.00;98827.81;5010871;28;20029;-74
2021/08/29 02:58:35;;;;;;;16.15;8.82;;;;;;;11.83;100.00;98811.50;5009440;28;20029;-74
2021/08/29 03:01:01;;;;;;;17.80;8.75;;;;;;;11.98;100.00;98825.69;5011294;28;20030;-74
2021/08/29 03:03:26;;;;;;;16.20;8.73;;;;;;;11.97;100.00;98824.03;5011090;28;20080;-73
2021/08/29 03:05:52;;;;;;;19.77;9.27;;;;;;;11.86;100.00;98816.53;5009140;28;20033;-74
2021/08/29 03:08:18;;;;;;;16.33;8.98;;;;;;;11.94;100.00;98829.03;5010375;28;20030;-74
2021/08/29 03:10:44;;;;;;;16.58;8.70;;;;;;;11.97;100.00;98813.19;5011073;28;20488;-74
2021/08/29 03:13:13;;;;;;;18.52;9.23;;;;;;;11.89;100.00;98820.69;5010684;28;20033;-74
2021/08/29 03:15:38;;;;;;;16.42;9.57;;;;;;;11.85;100.00;98804.00;5009751;28;20053;-74
2021/08/29 03:18:04;;;;;;;15.65;8.63;;;;;;;11.97;100.00;98818.63;5010917;28;20050;-74
2021/08/29 03:20:29;;;;;;;19.17;10.07;;;;;;;11.76;100.00;98791.69;5013178;28;20100;-74
2021/08/29 03:22:55;;;;;;;18.98;10.25;;;;;;;11.76;100.00;98789.00;5014671;28;20030;-74
2021/08/29 03:25:20;;;;;;;21.58;9.82;;;;;;;11.74;100.00;98786.50;5014474;28;20018;-74
2021/08/29 03:27:47;;;;;;;22.98;10.30;;;;;;;11.85;100.00;98801.28;5013124;28;20026;-74
2021/08/29 03:30:13;;;;;;;22.73;10.77;;;;;;;11.83;100.00;98801.50;5014062;28;20034;-74
2021/08/29 03:32:40;;;;;;;22.00;9.80;;;;;;;11.84;100.00;98794.19;5013928;28;20032;-74
2021/08/29 03:35:07;;;;;;;20.10;10.50;;;;;;;11.85;100.00;98801.28;5000418;28;20480;-74
2021/08/29 03:37:33;;;;;;;21.02;10.75;;;;;;;12.01;100.00;98805.47;4994477;28;20269;-74
2021/08/29 03:40:01;;;;;;;21.02;9.73;;;;;;;11.81;100.00;98776.47;4994420;28;20477;-74
2021/08/29 03:42:29;;;;;;;19.65;10.43;;;;;;;11.85;100.00;98782.31;5012486;28;20506;-74
2021/08/29 03:44:54;;;;;;;17.92;10.18;;;;;;;11.96;100.00;98795.25;5013726;28;20064;-74
2021/08/29 03:47:20;;;;;;;20.77;9.93;;;;;;;11.88;100.00;98792.75;5013739;28;20537;-74
2021/08/29 03:49:45;;;;;;;23.65;10.73;;;;;;;11.86;100.00;98792.13;5013848;28;20798;-74
2021/08/29 03:52:14;;;;;;;19.67;9.80;;;;;;;11.92;100.00;98793.16;5013976;28;20033;-74
2021/08/29 03:54:41;;;;;;;19.75;9.70;;;;;;;11.88;100.00;98792.75;5012790;28;20029;-74
2021/08/29 03:57:07;;;;;;;17.23;9.35;;;;;;;11.84;100.00;98783.34;5013508;28;20029;-74
2021/08/29 03:59:33;;;;;;;21.70;10.05;;;;;;;11.88;100.00;98781.91;5013973;28;20034;-74
2021/08/29 04:01:58;;;;;;;23.77;11.05;;;;;;;11.75;100.00;98760.25;5009243;28;20071;-74
2021/08/29 04:04:24;;;;;;;23.83;10.90;;;;;;;11.83;100.00;98795.25;5009018;28;20431;-74
2021/08/29 04:06:50;;;;;;;27.17;11.45;;;;;;;11.76;100.00;98784.44;5012284;28;20018;-74
2021/08/29 04:09:20;;;;;;;25.48;11.40;;;;;;;11.75;100.00;98771.06;5013621;28;20033;-74
2021/08/29 04:11:48;;;;;;;26.00;11.07;;;;;;;11.75;100.00;98771.91;5013554;28;20050;-74
2021/08/29 04:14:14;;;;;;;24.65;11.25;;;;;;;11.83;100.00;98774.38;5012255;28;20384;-74
2021/08/29 04:16:40;;;;;;;22.85;11.38;;;;;;;11.72;100.00;98761.50;5013833;28;20080;-74
2021/08/29 04:19:07;;;;;;;23.02;11.15;;;;;;;11.88;100.00;98786.50;5013399;28;20026;-75
2021/08/29 04:21:33;;;;;;;24.73;10.82;;;;;;;11.88;100.00;98781.91;5015203;28;20036;-75
2021/08/29 04:23:58;;;;;;;24.77;11.55;;;;;;;11.80;100.00;98774.00;5012668;28;20026;-76
2021/08/29 04:26:25;;;;;;;26.05;10.32;;;;;;;11.87;100.00;98772.13;5011907;28;20045;-75
2021/08/29 04:28:50;;;;;;;25.33;10.65;;;;;;;11.79;100.00;98756.06;5013102;28;20562;-74
2021/08/29 04:31:23;;;;;;;20.63;10.20;;;;;;;11.87;100.00;98779.41;5012250;28;20030;-75
2021/08/29 04:33:48;;;;;;;21.15;10.65;;;;;;;11.81;100.00;98753.97;5012921;28;20060;-75
2021/08/29 04:36:13;;;;;;;25.15;10.25;;;;;;;11.90;100.00;98765.47;5012621;28;20057;-74
2021/08/29 04:38:39;;;;;;;23.35;9.90;;;;;;;11.89;100.00;98767.31;5012959;28;20022;-75
2021/08/29 04:41:05;;;;;;;23.02;10.45;;;;;;;11.84;100.00;98758.94;5013122;28;20392;-74
2021/08/29 04:43:30;;;;;;;25.75;10.75;;;;;;;11.77;100.00;98752.72;5012740;28;20029;-74
2021/08/29 04:45:56;;;;;;;35.70;12.00;;;;;;;11.72;100.00;98752.53;5013073;28;20030;-75
2021/08/29 04:48:21;;;;;;;23.55;11.30;;;;;;;11.71;100.00;98740.00;5011879;28;20119;-74
2021/08/29 04:50:47;;;;;;;24.00;10.75;;;;;;;11.79;100.00;98756.06;5013181;28;20022;-74
2021/08/29 04:53:12;;;;;;;24.75;10.63;;;;;;;11.88;100.00;98762.94;5008006;28;20117;-74
2021/08/29 04:55:38;;;;;;;21.60;10.70;;;;;;;11.91;100.00;98775.25;4997178;28;20404;-74
2021/08/29 04:58:03;;;;;;;31.15;11.85;;;;;;;11.84;100.00;98750.81;4993158;28;20400;-74
2021/08/29 05:00:28;;;;;;;23.15;10.43;;;;;;;12.03;100.00;98763.53;4993250;28;20054;-74
2021/08/29 05:02:53;;;;;;;18.40;10.23;;;;;;;11.87;100.00;98746.88;4992749;28;20030;-74
2021/08/29 05:05:19;;;;;;;24.05;10.68;;;;;;;11.85;100.00;98733.53;4993226;28;20026;-74
2021/08/29 05:07:44;;;;;;;18.58;9.93;;;;;;;11.82;100.00;98747.50;4992939;28;20108;-74
2021/08/29 05:10:09;;;;;;;23.95;10.20;;;;;;;11.94;100.00;98762.09;5012338;28;20026;-75
2021/08/29 05:12:35;;;;;;;23.83;10.70;;;;;;;11.80;100.00;98744.16;5010915;28;20034;-74
2021/08/29 05:15:00;;;;;;;28.27;10.60;;;;;;;11.91;100.00;98765.22;5012853;28;20032;-74
2021/08/29 05:17:25;;;;;;;21.75;10.00;;;;;;;11.87;100.00;98758.59;5012843;28;20025;-75
2021/08/29 05:19:51;;;;;;;25.25;10.23;;;;;;;11.94;100.00;98764.78;5012642;28;20480;-74
2021/08/29 05:22:16;;;;;;;26.05;10.43;;;;;;;11.97;100.00;98764.41;5009556;28;20423;-74
2021/08/29 05:24:41;;;;;;;21.00;9.40;;;;;;;11.98;100.00;98766.03;5012063;28;20113;-75
2021/08/29 05:27:07;;;;;;;18.52;9.18;;;;;;;12.03;100.00;98773.56;5011367;28;20476;-74
2021/08/29 05:29:32;;;;;;;19.65;9.52;;;;;;;11.97;100.00;98758.97;5010916;28;20061;-74
2021/08/29 05:31:57;;;;;;;20.17;10.32;;;;;;;12.00;100.00;98752.28;5012073;28;20029;-74
2021/08/29 05:34:23;;;;;;;24.75;10.07;;;;;;;11.96;100.00;98762.72;5011043;28;20037;-74
2021/08/29 05:36:48;;;;;;;20.95;9.57;;;;;;;12.02;100.00;98764.56;5012049;28;20034;-74
2021/08/29 05:39:13;;;;;;;22.17;10.30;;;;;;;11.82;100.00;98733.97;5010245;28;20116;-75
2021/08/29 05:41:39;;;;;;;21.75;10.45;;;;;;;12.11;100.00;98767.88;5011701;28;20026;-74
2021/08/29 05:44:04;;;;;;;19.83;11.00;;;;;;;12.07;100.00;98751.19;5010779;28;20108;-74
2021/08/29 05:46:30;;;;;;;20.58;10.13;;;;;;;11.88;100.00;98705.19;5010679;28;20053;-75
2021/08/29 05:48:55;;;;;;;20.25;9.85;;;;;;;12.05;100.00;98749.75;5011464;28;20739;-75
2021/08/29 05:51:20;;;;;;;20.95;9.98;;;;;;;12.14;100.00;98767.44;5012149;28;20399;-74
2021/08/29 05:53:46;;;;;;;19.90;9.27;;;;;;;12.18;100.00;98760.56;5011515;28;20030;-73
2021/08/29 05:56:11;;;;;;;17.45;8.90;;;;;;;12.22;100.00;98766.38;5001651;28;20049;-72
2021/08/29 05:58:37;;;;;;;20.88;9.25;;;;;;;12.27;100.00;98772.00;5001719;28;20018;-72
2021/08/29 06:01:02;;;;;;;10.63;6.65;;;;;;;12.24;100.00;98767.84;4996227;28;20034;-72
2021/08/29 06:03:28;;;;;;;13.52;7.13;;;;;;;12.16;100.00;98761.81;5005423;28;20567;-73
2021/08/29 06:05:53;;;;;;;9.90;5.68;;;;;;;12.24;100.00;98761.59;5007632;28;20095;-73
2021/08/29 06:08:19;;;;;;;7.20;4.45;;;;;;;12.30;100.00;98779.69;5010188;28;20025;-72
2021/08/29 06:10:44;;;;;;;8.25;4.70;;;;;;;12.29;100.00;98780.75;5008134;28;20905;-73
2021/08/29 06:13:09;;;;;;;6.25;4.10;;;;;;;12.29;100.00;98772.63;5002383;28;20045;-72
2021/08/29 06:15:35;;;;;;;4.00;2.58;;;;;;;12.13;100.00;98768.50;5010355;28;20032;-72
2021/08/29 06:18:00;;;;;;;5.35;2.30;;;;;;;12.09;100.00;98761.84;5009990;28;20026;-72
2021/08/29 06:20:26;;;;;;;5.15;2.60;;;;;;;12.20;100.00;98773.91;5009589;28;20475;-73
2021/08/29 06:22:52;;;;;;;4.72;2.88;;;;;;;12.28;100.00;98773.66;5003350;28;20041;-72
2021/08/29 06:25:17;;;;;;;6.25;2.67;;;;;;;12.30;100.00;98758.00;4997578;28;20153;-72
2021/08/29 06:27:42;;;;;;;3.55;2.50;;;;;;;12.40;100.00;98769.22;5010640;28;20072;-72
2021/08/29 06:30:08;;;;;;;3.60;2.53;;;;;;;12.41;100.00;98770.88;5008526;28;20038;-70
2021/08/29 06:32:33;;;;;;;2.83;1.95;;;;;;;12.37;100.00;98766.94;5009111;28;20041;-75
2021/08/29 06:34:59;;;;;;;3.70;2.10;;;;;;;12.37;100.00;98768.84;5006420;28;20038;-72
2021/08/29 06:37:24;;;;;;;3.88;2.20;;;;;;;12.44;100.00;98772.31;4997601;28;20104;-72
2021/08/29 06:39:49;;;;;;;3.35;2.00;;;;;;;12.30;100.00;98751.75;5008166;28;20033;-71
2021/08/29 06:42:15;;;;;;;5.57;2.53;;;;;;;12.41;100.00;98770.88;5010635;28;20033;-73
2021/08/29 06:44:40;;;;;;;2.53;1.88;;;;;;;12.31;100.00;98759.66;5009676;28;20061;-76
2021/08/29 06:47:05;;;;;;;3.00;2.10;;;;;;;12.33;100.00;98764.88;5005573;28;20041;-70
2021/08/29 06:49:30;;;;;;;2.97;1.77;;;;;;;12.24;100.00;98756.16;5007434;28;20034;-71
2021/08/29 06:51:56;;;;;;;2.30;1.58;;;;;;;12.27;100.00;98748.41;5005911;28;20389;-72
2021/08/29 06:54:21;;;;;;;3.15;2.03;;;;;;;12.34;100.00;98761.97;5009687;28;20399;-71
2021/08/29 06:56:46;;;;;;;3.53;1.92;;;;;;;12.41;100.00;98765.44;5011920;28;20026;-71
2021/08/29 06:59:12;;;;;;;3.83;2.50;;;;;;;12.35;100.00;98750.03;5004868;28;20071;-71
2021/08/29 07:01:37;;;;;;;4.60;2.55;;;;;;;12.33;100.00;98749.41;5011633;28;20033;-72
2021/08/29 07:04:03;;;;;;;4.25;2.28;;;;;;;12.48;100.00;98762.72;5010062;28;20037;-72
2021/08/29 07:06:28;;;;;;;2.63;2.00;;;;;;;12.34;100.00;98756.53;5009970;28;20403;-71
2021/08/29 07:08:53;;;;;;;3.03;1.80;;;;;;;12.22;100.00;98744.69;5012981;28;20109;-71
2021/08/29 07:11:19;;;;;;;2.30;1.55;;;;;;;12.37;100.00;98753.38;5012515;28;20030;-71
2021/08/29 07:13:44;;;;;;;4.00;1.92;;;;;;;12.25;100.00;98764.06;5007888;28;20037;-72
2021/08/29 07:16:09;;;;;;;3.90;2.20;;;;;;;12.27;100.00;98742.16;5002368;28;20032;-72
2021/08/29 07:18:35;;;;;;;4.78;2.60;;;;;;;12.34;100.00;98751.09;5013359;28;20849;-72
2021/08/29 07:21:01;;;;;;;4.22;2.85;;;;;;;12.43;100.00;98755.22;5004511;28;20483;-72
2021/08/29 07:23:29;;;;;;;4.28;2.75;;;;;;;12.37;100.00;98745.25;4998372;28;20034;-71
2021/08/29 07:25:55;;;;;;;4.65;2.25;;;;;;;12.19;100.00;98720.72;4994912;28;20038;-72
2021/08/29 07:28:20;;;;;;;4.07;2.25;;;;;;;12.22;100.00;98733.84;5002017;28;20034;-70
2021/08/29 07:30:46;;;;;;;3.30;2.08;;;;;;;12.24;100.00;98751.56;5000863;28;20030;-67
2021/08/29 07:33:11;;;;;;;2.45;1.55;;;;;;;12.34;100.00;98753.81;5001306;28;20520;-67
2021/08/29 07:35:36;;;;;;;3.25;1.80;;;;;;;12.25;100.00;98760.53;5003526;28;20042;-68
2021/08/29 07:38:04;;;;;;;3.80;2.20;;;;;;;12.15;100.00;98749.28;5008975;28;20033;-72
2021/08/29 07:40:29;;;;;;;2.63;2.00;;;;;;;12.34;100.00;98761.97;5010591;28;20018;-71
2021/08/29 07:42:55;;;;;;;3.30;2.50;;;;;;;12.39;100.00;98751.28;5042765;28;20079;-74
2021/08/29 07:45:20;;;;;;;6.95;2.10;;;;;;;12.43;100.00;98759.81;5013319;28;20038;-70
2021/08/29 07:47:52;;;;;;;4.38;2.58;;;;;;;12.43;100.00;98755.22;4999404;28;20112;-73
2021/08/29 07:50:17;;;;;;;4.20;2.88;;;;;;;12.38;100.00;98751.50;5006674;28;20022;-73
2021/08/29 07:52:43;;;;;;;4.70;2.55;;;;;;;12.21;100.00;98733.00;5005854;28;20044;-73
2021/08/29 07:55:08;;;;;;;2.70;2.00;;;;;;;12.38;100.00;98755.03;5007227;28;20120;-72
2021/08/29 07:57:34;;;;;;;2.35;1.70;;;;;;;12.64;100.00;98777.66;5025298;28;20146;-73
2021/08/29 08:00:00;;;;;;;2.50;1.55;;;;;;;12.56;100.00;98757.03;5004804;28;20026;-72
2021/08/29 08:02:25;;;;;;;1.90;1.55;;;;;;;12.74;100.00;98763.63;5002834;28;20041;-80
2021/08/29 08:04:51;;;;;;;4.00;2.17;;;;;;;13.03;100.00;98762.16;5007304;28;20034;-77
2021/08/29 08:07:16;;;;;;;4.03;2.25;;;;;;;13.18;100.00;98757.25;5011768;28;20036;-76
2021/08/29 08:09:41;;;;;;;2.28;1.58;;;;;;;13.30;100.00;98758.19;5015488;28;20548;-76
2021/08/29 08:12:07;;;;;;;1.98;1.60;;;;;;;13.27;100.00;98774.13;5017058;28;20030;-75
2021/08/29 08:14:32;;;;;;;2.25;1.30;;;;;;;13.01;100.00;98780.56;5013564;28;20025;-72
2021/08/29 08:16:57;;;;;;;1.20;0.90;;;;;;;12.79;100.00;98763.81;5012799;28;20022;-74
2021/08/29 08:19:23;;;;;;;1.48;1.00;;;;;;;12.74;100.00;98759.03;5008419;28;20022;-75
2021/08/29 08:21:48;;;;;;;1.08;0.90;;;;;;;12.58;100.00;98749.50;5007494;28;20030;-74
2021/08/29 08:24:13;;;;;;;2.10;1.30;;;;;;;12.50;100.00;98747.06;5010603;28;20038;-74
2021/08/29 08:26:39;;;;;;;1.45;1.35;;;;;;;12.88;100.00;98759.75;5009505;28;20033;-73
2021/08/29 08:29:04;;;;;;;1.77;1.20;;;;;;;12.89;100.00;98750.53;5008065;28;20503;-74
2021/08/29 08:31:29;;;;;;;3.22;0.80;;;;;;;12.78;100.00;98749.38;5012662;28;20038;-73
2021/08/29 08:33:54;;;;;;;1.23;0.93;;;;;;;12.83;100.00;98754.97;5005310;28;20083;-73
2021/08/29 08:36:20;;;;;;;1.27;0.93;;;;;;;12.78;100.00;98745.81;5005857;28;20025;-73
2021/08/29 08:38:45;;;;;;;1.88;1.15;;;;;;;12.98;100.00;98759.28;5005610;28;20069;-74
2021/08/29 08:41:11;;;;;;;1.00;0.80;;;;;;;12.88;100.00;98752.44;5006622;28;20026;-73
2021/08/29 08:43:36;;;;;;;0.82;0.80;;;;;;;13.05;100.00;98768.22;5005633;28;20499;-73
2021/08/29 08:46:03;;;;;;;4.30;1.48;;;;;;;13.14;100.00;98773.13;5010397;28;20022;-74
2021/08/29 08:48:29;;;;;;;1.02;0.93;;;;;;;13.18;100.00;98769.97;4993187;28;20037;-73
2021/08/29 08:50:57;;;;;;;1.13;0.90;;;;;;;13.12;100.00;98766.25;4997756;28;20037;-74
2021/08/29 08:53:24;;;;;;;0.80;0.75;;;;;;;13.19;100.00;98766.22;5010312;28;20026;-74
2021/08/29 08:55:51;;;;;;;1.55;0.93;;;;;;;13.19;100.00;98758.06;5004422;28;20073;-72
2021/08/29 08:58:17;;;;;;;1.25;0.90;;;;;;;13.21;100.00;98745.94;5002009;28;20030;-73
2021/08/29 09:00:44;;;;;;;0.52;0.52;;;;;;;13.43;100.00;98772.75;4997216;28;20045;-73
2021/08/29 09:03:10;;;;;;;0.95;0.82;;;;;;;13.58;100.00;98765.91;4999113;28;20591;-72
2021/08/29 09:05:39;;;;;;;0.93;0.70;;;;;;;13.60;100.00;98741.22;5008470;28;20113;-72
2021/08/29 09:08:06;;;;;;;0.75;0.75;;;;;;;13.72;100.00;98757.63;5002532;28;20041;-77
2021/08/29 09:10:32;;;;;;;0.75;0.50;;;;;;;13.56;100.00;98756.31;4995109;28;20026;-73
2021/08/29 09:13:00;;;;;;;0.45;0.40;;;;;;;13.55;100.00;98768.25;5001967;28;20021;-73
2021/08/29 09:15:26;;;;;;;0.95;0.50;;;;;;;13.50;100.00;98765.38;5001903;28;20049;-74
2021/08/29 09:17:51;;;;;;;0.77;0.60;;;;;;;13.42;100.00;98765.66;4996769;28;20084;-71
2021/08/29 09:20:24;;;;;;;1.30;0.60;;;;;;;13.42;100.00;98771.91;5010320;28;20033;-72
2021/08/29 09:22:53;;;;;;;0.70;0.52;;;;;;;13.52;100.00;98768.69;4992575;28;20025;-72
2021/08/29 09:25:21;;;;;;;0.57;0.43;;;;;;;13.54;100.00;98763.84;5005060;28;20032;-71
2021/08/29 09:27:51;;;;;;;0.63;0.50;;;;;;;13.72;100.00;98772.03;4998567;28;20041;-72
2021/08/29 09:30:18;;;;;;;0.98;0.60;;;;;;;13.89;100.00;98772.28;5009189;28;20088;-72
2021/08/29 09:32:52;;;;;;;0.45;0.45;;;;;;;13.90;100.00;98759.53;4997183;28;20022;-72
2021/08/29 09:35:19;;;;;;;0.77;0.55;;;;;;;13.96;100.00;98762.19;4997814;28;20076;-72
2021/08/29 09:37:44;;;;;;;1.15;0.50;;;;;;;13.91;100.00;98764.75;4999173;28;20438;-71
2021/08/29 09:40:24;;;;;;;0.57;0.47;;;;;;;13.75;100.00;98759.88;5005378;28;20033;-72
2021/08/29 09:42:51;;;;;;;0.40;0.40;;;;;;;13.72;100.00;98772.03;4999470;28;20029;-71
2021/08/29 09:45:31;;;;;;;0.75;0.47;;;;;;;13.72;100.00;98757.63;4999573;28;20021;-72
2021/08/29 09:47:59;;;;;;;0.82;0.60;;;;;;;13.83;100.00;98759.59;4998134;28;20116;-72
2021/08/29 09:50:26;;;;;;;0.40;0.32;;;;;;;13.90;100.00;98756.81;4996671;28;20161;-72
2021/08/29 09:53:10;;;;;;;1.52;0.55;;;;;;;14.16;100.00;98761.13;4999359;28;20030;-71
2021/08/29 09:55:41;;;;;;;0.40;0.40;;;;;;;14.04;100.00;98758.31;5001196;28;20126;-72
2021/08/29 09:58:25;;;;;;;0.45;0.40;;;;;;;14.15;100.00;98760.28;4999828;28;20033;-71
2021/08/29 10:01:09;;;;;;;0.30;0.30;;;;;;;14.19;100.00;98760.66;5003573;28;20117;-72
2021/08/29 10:03:36;;;;;;;0.20;0.20;;;;;;;14.24;100.00;98761.63;5005366;28;20029;-72
2021/08/29 10:06:27;;;;;;;0.75;0.50;;;;;;;14.24;100.00;98752.63;5004754;28;20128;-73
2021/08/29 10:08:54;;;;;;;1.08;0.50;;;;;;;14.06;100.00;98726.28;5004533;28;20030;-74
2021/08/29 10:11:21;;;;;;;0.35;0.22;;;;;;;14.13;100.00;98756.13;5004789;28;20507;-73
2021/08/29 10:13:48;;;;;;;0.22;0.22;;;;;;;14.14;100.00;98752.34;5002769;28;20029;-73
2021/08/29 10:16:14;;;;;;;2.15;0.30;;;;;;;14.11;100.00;98755.53;5001023;28;20092;-73
2021/08/29 10:18:44;;;;;;;0.52;0.38;;;;;;;14.06;100.00;98733.59;5007146;28;20034;-72
2021/08/29 10:21:11;;;;;;;;;;;;;;;14.11;100.00;98756.34;5010401;28;20026;-74
2021/08/29 10:23:39;;;;;;;0.20;0.20;;;;;;;14.05;100.00;98727.34;5003955;28;20012;-73
2021/08/29 10:26:06;;;;;;;0.67;0.20;;;;;;;14.22;100.00;98752.84;4988789;28;20113;-73
2021/08/29 10:28:57;;;;;;;0.95;0.47;;;;;;;14.40;100.00;98748.44;5001664;28;20277;-72
2021/08/29 10:31:32;;;;;;;0.70;0.35;;;;;;;14.50;100.00;98737.84;4985876;28;20046;-73
2021/08/29 10:33:58;;;;;;;0.25;0.17;;;;;;;14.64;100.00;98724.91;4998041;28;20030;-73
2021/08/29 10:36:24;;;;;;;0.57;0.38;;;;;;;14.94;99.42;98748.59;4993102;28;20096;-73
2021/08/29 10:38:50;;;;;;;0.70;0.50;;;;;;;14.94;100.00;98745.84;4992695;28;20026;-73
2021/08/29 10:41:20;;;;;;;1.13;0.60;;;;;;;15.05;100.00;98743.16;5004704;28;20149;-74
2021/08/29 10:43:51;;;;;;;0.63;0.43;;;;;;;15.13;100.00;98731.91;5001044;28;20033;-73
2021/08/29 10:46:17;;;;;;;0.80;0.40;;;;;;;15.19;100.00;98742.94;5001553;28;20108;-74
2021/08/29 10:48:45;;;;;;;1.00;0.70;;;;;;;15.16;100.00;98722.44;5006795;28;20113;-74
2021/08/29 10:51:13;;;;;;;1.98;1.00;;;;;;;15.10;100.00;98745.19;4990417;28;20034;-74
2021/08/29 10:53:48;;;;;;;1.48;0.82;;;;;;;15.04;100.00;98722.41;5007989;28;20690;-75
2021/08/29 10:56:16;;;;;;;1.40;0.70;;;;;;;15.22;100.00;98740.59;5007679;28;20049;-75
2021/08/29 10:59:08;;;;;;;2.03;0.70;;;;;;;15.47;99.44;98744.97;5006332;28;20044;-76
2021/08/29 11:01:38;;;;;;;0.93;0.40;;;;;;;15.46;98.35;98726.97;5006203;28;20044;-74
2021/08/29 11:04:36;;;;;;;0.70;0.47;;;;;;;15.20;97.38;98698.28;5018729;28;20034;-75
2021/08/29 11:07:08;;;;;;;0.98;0.60;;;;;;;15.31;97.43;98738.34;4990893;28;20113;-74
2021/08/29 11:09:36;;;;;;;0.90;0.60;;;;;;;15.07;98.46;98734.75;5007109;28;20072;-74
2021/08/29 11:12:23;;;;;;;1.05;0.50;;;;;;;14.95;99.98;98739.34;5004269;28;20034;-75
2021/08/29 11:14:52;;;;;;;0.82;0.45;;;;;;;14.80;100.00;98739.75;4984609;28;20062;-75
2021/08/29 11:17:25;;;;;;;1.33;0.70;;;;;;;14.73;100.00;98722.72;5003860;28;20513;-75
2021/08/29 11:20:08;;;;;;;1.48;0.77;;;;;;;14.54;100.00;98741.81;5003643;28;20496;-73
2021/08/29 11:22:47;;;;;;;1.85;0.82;;;;;;;14.52;100.00;98745.81;4999632;28;20106;-75